Monday, June 25, 2018, 12:20 AM EDT
Back to Local

KEEN, Keene, Dillant-hopkins Airport

Location: Keene, NH, United States Lat: 42.9
Local Time: 12:20 AM EDT ( 4:20 GMT) Lon: -72.267
Time Zone: US/Eastern Elev: 488 ft

Show me the last for .
Show Decoded

2018-06-24 22:56 METAR KEEN 250256Z AUTO 36003KT 8SM -RA FEW029 BKN034 OVC065 18/17 A2982 RMK AO2
                 SLP113 P0003 60104 T01780172 50007 =
2018-06-24 22:44 METAR KEEN 250244Z AUTO 35003KT 7SM -RA SCT027 BKN033 OVC065 18/17 A2982 RMK AO2
                 P0003 =
2018-06-24 22:14 METAR KEEN 250214Z AUTO 34004KT 9SM -RA SCT008 SCT013 OVC025 18/18 A2982 RMK AO2
                 P0001 =
2018-06-24 21:56 METAR KEEN 250156Z AUTO 02005KT 6SM RA BR BKN008 BKN013 OVC029 18/18 A2982 RMK
                 AO2 CIG 006V011 SLP115 P0076 T01830178 =
2018-06-24 21:16 METAR KEEN 250116Z AUTO 33007KT 3SM +RA BR BKN004 BKN012 OVC019 19/19 A2981 RMK
                 AO2 CIG 002V009 P0056 =
2018-06-24 21:10 METAR KEEN 250110Z AUTO 02006KT 2 1/2SM +RA BR SCT004 BKN009 OVC019 19/19 A2981
                 RMK AO2 CIG 005V010 P0044 =
2018-06-24 20:56 METAR KEEN 250056Z AUTO 33012KT 5SM +RA BR FEW003 BKN019 OVC028 20/19 A2980 RMK
                 AO2 SLP107 P0025 T02000189 =
2018-06-24 20:52 METAR KEEN 250052Z AUTO 33010KT 6SM +RA BR FEW003 BKN008 OVC030 20/19 A2980 RMK
                 AO2 CIG 007V011 P0020 =
2018-06-24 20:21 METAR KEEN 250021Z AUTO 35005KT 3SM RA BR SCT003 BKN023 OVC032 21/20 A2980 RMK
                 AO2 P0005 =
2018-06-24 20:16 METAR KEEN 250016Z AUTO 01004KT 2SM +RA BR BKN023 OVC032 21/20 A2980 RMK AO2
                 P0005 =
2018-06-24 20:06 METAR KEEN 250006Z AUTO 00000KT 1 1/2SM +RA BR FEW025 BKN032 OVC050 21/20 A2980
                 RMK AO2 VIS 3/4V3 P0003 =
2018-06-24 19:56 METAR KEEN 242356Z AUTO 00000KT 2 1/2SM -RA BR BKN032 BKN044 OVC055 21/20 A2980
                 RMK AO2 LTG DSNT NW RAE11B39 SLP108 P0001 60063 T02060200 10278 20206 51004 =
2018-06-24 18:56 METAR KEEN 242256Z AUTO 00000KT 10SM -RA OVC070 22/21 A2980 RMK AO2 RAB54 SLP107
                 P0000 T02170206 =
2018-06-24 17:56 METAR KEEN 242156Z AUTO 00000KT 10SM FEW021 BKN033 OVC090 21/21 A2979 RMK AO2
                 RAE50 SLP106 P0002 T02110206 TSNO =
2018-06-24 17:48 METAR KEEN 242148Z AUTO 00000KT 10SM -RA SCT019 BKN033 OVC095 21/20 A2979 RMK
                 AO2 P0002 =
2018-06-24 17:20 METAR KEEN 242120Z AUTO 00000KT 10SM -RA BKN019 BKN042 OVC070 21/19 A2979 RMK
                 AO2 P0000 =
2018-06-24 16:56 METAR KEEN 242056Z AUTO 36003KT 10SM -RA SCT029 BKN038 OVC080 21/20 A2979 RMK
                 AO2 SLP104 P0046 60060 T02110200 53001 =
2018-06-24 16:31 METAR KEEN 242031Z AUTO 00000KT 7SM -RA FEW020 BKN032 OVC047 21/19 A2979 RMK AO2
                 P0010 =
2018-06-24 16:23 METAR KEEN 242023Z AUTO 00000KT 2SM -RA BR FEW014 BKN032 OVC043 21/19 A2979 RMK
                 AO2 VIS 3/4V5 P0008 =
2018-06-24 16:17 METAR KEEN 242017Z AUTO 08003KT 1SM +RA BR FEW016 BKN030 OVC038 21/19 A2979 RMK
                 AO2 P0008 =
2018-06-24 16:07 METAR KEEN 242007Z AUTO 00000KT 3/4SM +RA BR SCT019 BKN028 OVC038 21/19 A2980
                 RMK AO2 VIS 1/2V1 1/2 P0007 =
2018-06-24 16:05 METAR KEEN 242005Z AUTO 00000KT 1 1/4SM +RA BR FEW021 BKN028 OVC038 21/19 A2980
                 RMK AO2 VIS 1/2V5 P0007 =
2018-06-24 15:56 METAR KEEN 241956Z AUTO 02003KT 2 1/2SM +RA FEW021 BKN030 OVC039 22/19 A2979 RMK
                 AO2 VIS 1 1/2V5 RAB31 SLP105 P0014 T02170189 =
2018-06-24 14:56 METAR KEEN 241856Z AUTO VRB03KT 10SM BKN034 BKN046 OVC080 27/18 A2978 RMK AO2
                 SLP098 T02720178 =
2018-06-24 14:10 METAR KEEN 241810Z AUTO 00000KT 10SM FEW027 SCT031 OVC075 27/18 A2978 RMK AO2 =
2018-06-24 13:56 METAR KEEN 241756Z AUTO VRB04KT 10SM BKN027 BKN035 OVC080 27/19 A2979 RMK AO2
                 SLP101 T02670189 10278 20150 58016 =
2018-06-24 13:31 METAR KEEN 241731Z AUTO 00000KT 10SM BKN027 BKN033 BKN080 26/18 A2979 RMK AO2 =
2018-06-24 13:20 METAR KEEN 241720Z AUTO 00000KT 10SM SCT025 BKN033 OVC080 25/18 A2979 RMK AO2 =
2018-06-24 13:03 METAR KEEN 241703Z AUTO 04004KT 10SM BKN025 OVC080 27/18 A2980 RMK AO2 =
2018-06-24 12:56 METAR KEEN 241656Z AUTO VRB04KT 10SM SCT022 BKN080 27/18 A2980 RMK AO2 SLP106
                 T02670183 =
2018-06-24 12:29 METAR KEEN 241629Z AUTO VRB04KT 10SM BKN019 26/18 A2981 RMK AO2 =
2018-06-24 11:56 METAR KEEN 241556Z AUTO 02004KT 10SM SCT016 24/17 A2982 RMK AO2 SLP113 T02440172
                 TSNO =
2018-06-24 10:56 METAR KEEN 241456Z AUTO 00000KT 10SM BKN010 OVC031 21/17 A2983 RMK AO2 SLP119
                 T02110167 51004 =
2018-06-24 10:47 METAR KEEN 241447Z AUTO 00000KT 10SM OVC010 21/17 A2983 RMK AO2 =
2018-06-24 09:56 METAR KEEN 241356Z AUTO 00000KT 10SM OVC006 18/16 A2983 RMK AO2 SLP119 T01780156
                 =
2018-06-24 08:56 METAR KEEN 241256Z AUTO 00000KT 10SM OVC004 16/15 A2983 RMK AO2 SLP119 T01610150
                 =
2018-06-24 07:56 METAR KEEN 241156Z AUTO 21003KT 10SM OVC004 15/14 A2982 RMK AO2 SLP117 70005
                 T01500139 10150 20128 53002 =
2018-06-24 06:56 METAR KEEN 241056Z AUTO 18004KT 10SM OVC004 14/13 A2981 RMK AO2 SLP114 T01390133
                 =
2018-06-24 06:25 METAR KEEN 241025Z AUTO 18004KT 10SM OVC004 14/13 A2980 RMK AO2 =
2018-06-24 05:56 METAR KEEN 240956Z AUTO 00000KT 10SM OVC006 13/13 A2980 RMK AO2 SLP110 T01330128
                 =
2018-06-24 04:56 METAR KEEN 240856Z AUTO 00000KT 10SM OVC004 13/12 A2981 RMK AO2 SLP115 T01330122
                 56002 =
2018-06-24 04:52 METAR KEEN 240852Z AUTO 00000KT 10SM OVC004 13/12 A2982 RMK AO2 =
2018-06-24 03:56 METAR KEEN 240756Z AUTO 00000KT 10SM OVC008 13/12 A2981 RMK AO2 SLP113 T01280122
                 =
2018-06-24 03:06 METAR KEEN 240706Z AUTO 00000KT 10SM OVC008 13/12 A2982 RMK AO2 =
2018-06-24 02:56 METAR KEEN 240656Z AUTO 00000KT 10SM OVC010 13/12 A2982 RMK AO2 SLP117 T01280122
                 =
2018-06-24 02:36 METAR KEEN 240636Z AUTO 00000KT 10SM SCT004 OVC012 13/12 A2982 RMK AO2 =
2018-06-24 02:25 METAR KEEN 240625Z AUTO 00000KT 10SM BKN004 OVC012 13/12 A2983 RMK AO2 =
2018-06-24 02:14 METAR KEEN 240614Z AUTO 00000KT 10SM SCT004 OVC014 13/12 A2983 RMK AO2 =
2018-06-24 02:07 METAR KEEN 240607Z AUTO 00000KT 10SM BKN004 OVC014 13/12 A2983 RMK AO2 =
2018-06-24 01:56 METAR KEEN 240556Z AUTO 00000KT 10SM SCT004 OVC014 13/12 A2984 RMK AO2 SLP123
                 T01280117 10133 20128 55010 =
2018-06-24 01:44 METAR KEEN 240544Z AUTO 00000KT 10SM BKN004 OVC014 13/12 A2983 RMK AO2 =
2018-06-24 01:18 METAR KEEN 240518Z AUTO 00000KT 10SM SCT005 OVC014 13/12 A2984 RMK AO2 =
2018-06-24 00:56 METAR KEEN 240456Z AUTO 00000KT 10SM OVC005 13/12 A2984 RMK AO2 SLP122 T01280117
                 401830128 =
2018-06-24 00:22 METAR KEEN 240422Z AUTO 00000KT 8SM OVC005 13/12 A2985 RMK AO2 =

Support USWX by starting your Amazon purchase here.